Time;durP1;ratioP1;P1;durP2;ratioP2;P2;SDS_P1;SDS_P2;PMS_P1;PMS_P2;Temp;Humidity;BMP_temperature;BMP_pressure;BME280_temperature;BME280_humidity;BME280_pressure;Samples;Min_cycle;Max_cycle;Signal;HPM_P1;HPM_P2
2022/11/28 00:02:15;;;;;;;10.40;5.45;;;7.90;99.90;;;;;;4993523;28;20438;-38
2022/11/28 00:04:41;;;;;;;7.15;4.45;;;8.00;99.90;;;;;;4993864;28;20026;-39
2022/11/28 00:07:06;;;;;;;9.02;4.72;;;8.00;99.90;;;;;;4999912;28;20033;-38
2022/11/28 00:09:32;;;;;;;7.30;4.75;;;8.00;99.90;;;;;;4977272;28;20026;-39
2022/11/28 00:11:57;;;;;;;7.53;5.18;;;8.00;99.90;;;;;;4995698;28;20113;-29
2022/11/28 00:14:23;;;;;;;7.03;4.70;;;8.00;99.90;;;;;;4993797;28;20495;-34
2022/11/28 00:16:49;;;;;;;10.75;5.55;;;8.10;99.90;;;;;;4994992;28;20037;-29
2022/11/28 00:19:15;;;;;;;6.70;4.80;;;8.10;99.90;;;;;;4995721;28;20023;-30
2022/11/28 00:21:41;;;;;;;9.95;5.70;;;8.00;99.90;;;;;;4991101;28;20022;-30
2022/11/28 00:24:06;;;;;;;9.65;5.50;;;8.00;99.90;;;;;;4990668;28;20578;-31
2022/11/28 00:26:37;;;;;;;8.23;5.43;;;8.10;99.90;;;;;;4993583;28;20101;-31
2022/11/28 00:29:03;;;;;;;10.40;5.25;;;8.10;99.90;;;;;;4991112;28;20466;-31
2022/11/28 00:31:34;;;;;;;10.32;5.85;;;8.10;99.90;;;;;;4991218;28;20509;-28
2022/11/28 00:34:02;;;;;;;10.15;5.57;;;8.20;99.90;;;;;;4991282;28;20470;-32
2022/11/28 00:36:29;;;;;;;11.07;5.38;;;8.20;99.90;;;;;;4983589;28;20026;-28
2022/11/28 00:38:55;;;;;;;12.77;6.43;;;8.20;99.90;;;;;;4990602;28;20040;-28
2022/11/28 00:41:27;;;;;;;7.32;4.68;;;8.20;99.90;;;;;;4991947;28;20034;-36
2022/11/28 00:43:53;;;;;;;10.65;5.68;;;8.10;99.90;;;;;;4982901;28;20060;-30
2022/11/28 00:46:20;;;;;;;15.70;6.82;;;8.10;99.90;;;;;;4988087;28;20026;-35
2022/11/28 00:48:46;;;;;;;9.70;6.23;;;8.10;99.90;;;;;;4991085;28;20614;-31
2022/11/28 00:51:21;;;;;;;12.13;5.22;;;8.10;99.90;;;;;;4993641;28;20053;-32
2022/11/28 00:53:48;;;;;;;10.35;5.80;;;8.20;99.90;;;;;;4987132;28;20030;-29
2022/11/28 00:56:17;;;;;;;9.80;5.93;;;8.20;99.90;;;;;;4988492;28;20473;-38
2022/11/28 00:58:44;;;;;;;9.43;6.05;;;8.20;99.90;;;;;;4989936;28;22166;-38
2022/11/28 01:01:22;;;;;;;16.75;5.78;;;8.20;99.90;;;;;;4989462;28;20427;-38
2022/11/28 01:03:49;;;;;;;13.02;6.57;;;8.20;99.90;;;;;;4991680;28;20360;-38
2022/11/28 01:06:25;;;;;;;17.70;6.38;;;8.20;99.90;;;;;;4993803;28;20441;-37
2022/11/28 01:08:51;;;;;;;10.68;5.75;;;8.20;99.90;;;;;;4985708;28;20548;-38
2022/11/28 01:11:17;;;;;;;10.45;6.60;;;8.20;99.90;;;;;;4987985;28;20026;-36
2022/11/28 01:13:43;;;;;;;11.77;5.60;;;8.20;99.90;;;;;;4990451;28;20030;-37
2022/11/28 01:16:09;;;;;;;13.43;6.32;;;8.20;99.90;;;;;;4989980;28;20418;-40
2022/11/28 01:18:36;;;;;;;11.13;6.32;;;8.20;99.90;;;;;;4987049;28;20030;-34
2022/11/28 01:21:02;;;;;;;10.38;6.53;;;8.20;99.90;;;;;;5000648;28;20541;-39
2022/11/28 01:23:27;;;;;;;10.93;7.22;;;8.20;99.90;;;;;;4993346;28;20034;-44
2022/11/28 01:25:53;;;;;;;11.25;5.85;;;8.20;99.90;;;;;;4989702;28;20037;-38
2022/11/28 01:28:18;;;;;;;9.52;5.88;;;8.30;99.90;;;;;;4990070;28;20410;-37
2022/11/28 01:30:44;;;;;;;9.05;5.35;;;8.30;99.90;;;;;;4988069;28;20026;-38
2022/11/28 01:33:09;;;;;;;11.63;6.57;;;8.30;99.90;;;;;;4975900;28;20124;-37
2022/11/28 01:35:35;;;;;;;9.32;5.68;;;8.30;99.90;;;;;;4995665;28;20378;-38
2022/11/28 01:38:01;;;;;;;9.20;5.00;;;8.30;99.90;;;;;;4993465;28;20113;-38
2022/11/28 01:40:26;;;;;;;7.57;5.35;;;8.40;99.90;;;;;;4992440;28;20030;-38
2022/11/28 01:42:52;;;;;;;8.80;5.72;;;8.40;99.90;;;;;;4994410;28;20494;-37
2022/11/28 01:45:29;;;;;;;11.48;5.47;;;8.40;99.90;;;;;;4992208;28;20105;-38
2022/11/28 01:48:00;;;;;;;8.07;4.78;;;8.40;99.90;;;;;;4994165;28;20034;-38
2022/11/28 01:50:28;;;;;;;10.70;4.75;;;8.40;99.90;;;;;;4991981;28;20390;-37
2022/11/28 01:52:57;;;;;;;7.53;4.65;;;8.40;99.90;;;;;;4996065;28;20201;-39
2022/11/28 01:55:44;;;;;;;7.32;4.70;;;8.40;99.90;;;;;;4990861;28;20034;-38
2022/11/28 01:58:11;;;;;;;8.00;5.03;;;8.50;99.90;;;;;;4994205;28;20494;-39
2022/11/28 02:00:36;;;;;;;5.55;4.60;;;8.50;99.90;;;;;;4993878;28;20081;-38
2022/11/28 02:03:18;;;;;;;8.43;5.25;;;8.50;99.90;;;;;;4976213;28;20034;-37
2022/11/28 02:05:44;;;;;;;4.82;3.97;;;8.50;99.90;;;;;;4990765;28;20462;-40
2022/11/28 02:08:10;;;;;;;6.03;4.45;;;8.50;99.90;;;;;;4991006;28;20022;-37
2022/11/28 02:11:08;;;;;;;5.32;4.28;;;8.60;99.90;;;;;;4993068;28;20422;-39
2022/11/28 02:13:52;;;;;;;8.13;5.10;;;8.60;99.90;;;;;;4974014;28;20513;-37
2022/11/28 02:16:32;;;;;;;8.20;5.10;;;8.60;99.90;;;;;;4992616;28;20030;-29
2022/11/28 02:19:06;;;;;;;6.32;4.20;;;8.60;99.90;;;;;;4991075;28;20088;-30
2022/11/28 02:21:58;;;;;;;8.10;5.15;;;8.70;99.90;;;;;;5005463;28;20475;-31
2022/11/28 02:24:54;;;;;;;8.43;4.80;;;8.70;99.90;;;;;;4974066;28;20117;-29
2022/11/28 02:28:10;;;;;;;5.07;4.30;;;8.70;99.90;;;;;;4974417;28;20030;-32
2022/11/28 02:31:09;;;;;;;4.53;3.80;;;8.80;99.90;;;;;;4948159;28;20042;-31
2022/11/28 02:33:44;;;;;;;4.78;4.05;;;8.80;99.90;;;;;;4992915;28;20109;-31
2022/11/28 02:36:59;;;;;;;5.88;4.20;;;8.80;99.90;;;;;;4993594;28;20521;-29
2022/11/28 02:39:37;;;;;;;6.00;4.78;;;8.80;99.90;;;;;;4931113;29;20496;-30
2022/11/28 02:42:26;;;;;;;8.05;5.10;;;8.80;99.90;;;;;;4987831;28;20042;-30
2022/11/28 02:45:19;;;;;;;7.22;5.47;;;8.80;99.90;;;;;;4989510;28;20030;-32
2022/11/28 02:47:54;;;;;;;7.00;5.10;;;8.80;99.90;;;;;;4989682;28;20470;-30
2022/11/28 02:50:29;;;;;;;6.90;5.22;;;8.80;99.90;;;;;;4988976;28;20466;-29
2022/11/28 02:53:08;;;;;;;9.32;5.35;;;8.80;99.90;;;;;;4989785;28;20414;-31
2022/11/28 02:55:38;;;;;;;11.10;5.63;;;8.80;99.90;;;;;;4991216;28;20034;-31
2022/11/28 02:58:04;;;;;;;6.72;5.35;;;8.80;99.90;;;;;;4990459;28;20065;-31
2022/11/28 03:00:35;;;;;;;7.15;5.22;;;8.90;99.90;;;;;;4991385;28;20509;-33
2022/11/28 03:03:28;;;;;;;6.70;5.60;;;8.90;99.90;;;;;;4991220;28;20026;-33
2022/11/28 03:06:05;;;;;;;8.35;5.65;;;8.90;99.90;;;;;;4990958;28;20085;-48
2022/11/28 03:08:50;;;;;;;8.87;6.13;;;8.90;99.90;;;;;;4987424;28;20105;-38
2022/11/28 03:11:33;;;;;;;8.40;6.15;;;8.90;99.90;;;;;;4991374;28;20030;-41
2022/11/28 03:14:14;;;;;;;11.50;6.35;;;8.90;99.90;;;;;;4987986;28;20037;-37
2022/11/28 03:16:51;;;;;;;9.77;7.00;;;8.80;99.90;;;;;;4992122;28;20030;-29
2022/11/28 03:19:20;;;;;;;11.68;7.03;;;8.80;99.90;;;;;;4998949;28;20490;-32
2022/11/28 03:22:08;;;;;;;10.02;6.70;;;8.90;99.90;;;;;;5016274;28;20569;-30
2022/11/28 03:24:37;;;;;;;8.38;5.57;;;8.90;99.90;;;;;;4990333;28;20042;-39
2022/11/28 03:27:22;;;;;;;13.93;7.78;;;8.90;99.90;;;;;;4993999;28;20395;-33
2022/11/28 03:29:53;;;;;;;12.63;8.68;;;8.80;99.90;;;;;;4994772;28;20026;-30
2022/11/28 03:32:23;;;;;;;12.32;7.88;;;8.80;99.90;;;;;;4996651;28;20471;-47
2022/11/28 03:34:55;;;;;;;14.73;8.27;;;8.80;99.90;;;;;;4995491;28;20068;-39
2022/11/28 03:37:25;;;;;;;14.20;8.05;;;8.80;99.90;;;;;;4994277;28;20410;-38
2022/11/28 03:39:58;;;;;;;13.50;7.32;;;8.80;99.90;;;;;;4992954;28;20502;-38
2022/11/28 03:42:28;;;;;;;12.18;7.75;;;8.80;99.90;;;;;;4994675;28;20018;-37
2022/11/28 03:44:59;;;;;;;13.90;8.52;;;8.80;99.90;;;;;;4993335;28;20026;-34
2022/11/28 03:47:33;;;;;;;14.45;9.02;;;8.80;99.90;;;;;;4963480;28;20501;-30
2022/11/28 03:50:05;;;;;;;16.35;9.32;;;8.80;99.90;;;;;;4994464;28;20050;-29
2022/11/28 03:52:39;;;;;;;18.38;8.85;;;8.80;99.90;;;;;;4989185;28;20538;-36
2022/11/28 03:55:29;;;;;;;13.45;8.65;;;8.70;99.90;;;;;;4994199;28;20026;-30
2022/11/28 03:58:04;;;;;;;14.32;9.20;;;8.70;99.90;;;;;;4995489;28;20050;-48
2022/11/28 04:00:34;;;;;;;16.33;9.00;;;8.70;99.90;;;;;;4995294;28;20026;-43
2022/11/28 04:03:09;;;;;;;22.17;9.65;;;8.80;99.90;;;;;;4995220;28;20562;-37
2022/11/28 04:05:44;;;;;;;15.05;9.13;;;8.80;99.90;;;;;;4978557;28;20042;-36
2022/11/28 04:08:34;;;;;;;20.20;9.60;;;8.70;99.90;;;;;;4985838;28;20038;-32
2022/11/28 04:11:03;;;;;;;20.10;9.38;;;8.70;99.90;;;;;;4996069;28;20406;-29
2022/11/28 04:13:34;;;;;;;16.85;9.27;;;8.70;99.90;;;;;;4994773;28;20077;-48
2022/11/28 04:16:24;;;;;;;22.60;9.48;;;8.70;99.90;;;;;;4995516;28;20498;-38
2022/11/28 04:19:11;;;;;;;19.23;10.75;;;8.70;99.90;;;;;;4981630;28;20121;-38
2022/11/28 04:21:42;;;;;;;25.55;10.52;;;8.80;99.90;;;;;;4995126;28;20398;-38
2022/11/28 04:24:13;;;;;;;19.20;10.23;;;8.70;99.90;;;;;;4989613;28;20054;-38
2022/11/28 04:26:44;;;;;;;16.98;10.23;;;8.70;99.90;;;;;;4993561;28;20034;-35
2022/11/28 04:29:15;;;;;;;16.27;9.77;;;8.70;99.90;;;;;;4993003;28;20035;-32
2022/11/28 04:31:43;;;;;;;16.63;10.43;;;8.70;99.90;;;;;;4969262;28;20483;-30
2022/11/28 04:34:13;;;;;;;15.60;9.13;;;8.70;99.90;;;;;;4991967;28;20403;-37
2022/11/28 04:36:43;;;;;;;20.88;9.70;;;8.70;99.90;;;;;;4994274;28;20470;-40
2022/11/28 04:39:13;;;;;;;17.90;9.15;;;8.70;99.90;;;;;;4993919;28;20026;-31
2022/11/28 04:41:59;;;;;;;17.17;9.20;;;8.70;99.90;;;;;;4993253;28;20482;-31
2022/11/28 04:44:35;;;;;;;15.50;9.52;;;8.70;99.90;;;;;;4993423;28;20035;-34
2022/11/28 04:47:01;;;;;;;15.20;9.15;;;8.70;99.90;;;;;;4992810;28;20037;-35
2022/11/28 04:49:28;;;;;;;18.88;9.32;;;8.70;99.90;;;;;;4994926;28;20045;-29
2022/11/28 04:52:09;;;;;;;20.80;9.50;;;8.70;99.90;;;;;;4994316;28;20029;-31
2022/11/28 04:54:59;;;;;;;16.65;8.82;;;8.60;99.90;;;;;;4993236;28;20045;-33
2022/11/28 04:57:34;;;;;;;17.10;8.40;;;8.70;99.90;;;;;;4995057;28;20038;-31
2022/11/28 05:00:09;;;;;;;19.33;8.25;;;8.70;99.90;;;;;;4985465;28;20081;-36
2022/11/28 05:02:36;;;;;;;15.15;8.48;;;8.60;99.90;;;;;;4973107;28;20503;-38
2022/11/28 05:05:10;;;;;;;19.87;9.50;;;8.60;99.90;;;;;;4990136;28;20030;-32
2022/11/28 05:07:35;;;;;;;16.88;9.32;;;8.60;99.90;;;;;;4995076;28;20418;-31
2022/11/28 05:10:01;;;;;;;14.73;8.63;;;8.70;99.90;;;;;;4991490;28;20033;-29
2022/11/28 05:12:26;;;;;;;17.25;9.68;;;8.70;99.90;;;;;;4993588;28;20026;-30
2022/11/28 05:14:52;;;;;;;20.33;8.70;;;8.60;99.90;;;;;;4994702;28;20054;-28
2022/11/28 05:17:18;;;;;;;15.10;9.27;;;8.60;99.90;;;;;;4990857;28;20030;-29
2022/11/28 05:19:43;;;;;;;14.77;8.75;;;8.60;99.90;;;;;;4993056;28;20084;-33
2022/11/28 05:22:09;;;;;;;15.30;8.15;;;8.60;99.90;;;;;;4991145;28;20030;-38
2022/11/28 05:24:35;;;;;;;22.83;10.32;;;8.70;99.90;;;;;;4989348;28;20096;-37
2022/11/28 05:27:00;;;;;;;17.27;8.63;;;8.70;99.90;;;;;;4994090;28;20034;-37
2022/11/28 05:29:26;;;;;;;18.35;9.50;;;8.70;99.90;;;;;;4991925;28;20030;-28
2022/11/28 05:31:51;;;;;;;20.42;8.70;;;8.70;99.90;;;;;;4989897;28;20121;-32
2022/11/28 05:34:17;;;;;;;22.23;9.10;;;8.70;99.90;;;;;;4993377;28;20390;-39
2022/11/28 05:36:43;;;;;;;15.52;8.70;;;8.70;99.90;;;;;;4993664;28;20037;-37
2022/11/28 05:39:08;;;;;;;21.17;8.88;;;8.70;99.90;;;;;;4976020;28;20560;-37
2022/11/28 05:41:34;;;;;;;20.25;9.90;;;8.70;99.90;;;;;;4990186;28;20033;-37
2022/11/28 05:44:00;;;;;;;15.90;8.73;;;8.70;99.90;;;;;;4992425;28;20112;-34
2022/11/28 05:46:27;;;;;;;18.33;9.52;;;8.70;99.90;;;;;;4993541;28;20034;-32
2022/11/28 05:48:53;;;;;;;19.73;9.57;;;8.80;99.90;;;;;;4993395;28;20382;-48
2022/11/28 05:51:18;;;;;;;13.80;8.60;;;8.80;99.90;;;;;;4992122;28;20030;-40
2022/11/28 05:53:44;;;;;;;21.88;9.88;;;8.70;99.90;;;;;;4990927;28;20034;-37
2022/11/28 05:56:13;;;;;;;22.08;9.75;;;8.70;99.90;;;;;;4992519;28;20060;-38
2022/11/28 05:58:38;;;;;;;16.70;8.85;;;8.70;99.90;;;;;;4992841;28;20030;-38
2022/11/28 06:01:17;;;;;;;22.02;9.95;;;8.70;99.90;;;;;;4990211;28;20037;-37
2022/11/28 06:03:44;;;;;;;22.60;10.18;;;8.70;99.90;;;;;;4976392;28;20038;-37
2022/11/28 06:06:23;;;;;;;18.95;9.43;;;8.80;99.90;;;;;;4993053;28;20035;-38
2022/11/28 06:08:51;;;;;;;19.23;8.93;;;8.80;99.90;;;;;;4966367;28;20023;-38
2022/11/28 06:11:17;;;;;;;20.95;9.00;;;8.80;99.90;;;;;;4992266;28;20052;-38
2022/11/28 06:13:44;;;;;;;18.20;10.20;;;8.80;99.90;;;;;;4992676;28;20042;-38
2022/11/28 06:16:15;;;;;;;17.52;9.60;;;8.80;99.90;;;;;;4991047;28;20031;-38
2022/11/28 06:18:41;;;;;;;19.60;9.90;;;8.80;99.90;;;;;;4991684;28;20041;-38
2022/11/28 06:21:08;;;;;;;15.90;9.68;;;8.80;99.90;;;;;;4990728;28;20471;-38
2022/11/28 06:23:34;;;;;;;18.20;9.70;;;8.80;99.90;;;;;;4991801;28;20486;-39
2022/11/28 06:26:12;;;;;;;17.33;9.55;;;8.80;99.90;;;;;;4991882;28;20049;-38
2022/11/28 06:28:38;;;;;;;;;;;8.80;99.90;;;;;;4993375;28;20393;-38
2022/11/28 06:31:07;;;;;;;25.52;9.57;;;8.80;99.90;;;;;;4987529;28;19914;-40
2022/11/28 06:33:33;;;;;;;22.05;10.15;;;8.90;99.90;;;;;;4991312;28;20041;-37
2022/11/28 06:36:04;;;;;;;19.40;9.88;;;8.90;99.90;;;;;;4991392;28;20483;-38
2022/11/28 06:38:30;;;;;;;26.58;12.88;;;8.80;99.90;;;;;;4972428;28;20367;-38
2022/11/28 06:41:03;;;;;;;24.00;11.27;;;8.80;99.90;;;;;;4991865;28;20093;-39
2022/11/28 06:43:29;;;;;;;21.75;11.40;;;8.80;99.90;;;;;;4987290;28;20379;-38
2022/11/28 06:45:55;;;;;;;26.08;11.43;;;8.90;99.90;;;;;;4975327;28;20045;-38
2022/11/28 06:48:21;;;;;;;24.48;12.02;;;8.90;99.90;;;;;;4996452;28;20121;-31
2022/11/28 06:50:47;;;;;;;23.73;11.43;;;8.90;99.90;;;;;;4991946;28;20506;-33
2022/11/28 06:53:13;;;;;;;25.63;12.07;;;8.80;99.90;;;;;;4995999;28;20445;-31
2022/11/28 06:55:39;;;;;;;27.35;11.13;;;8.90;99.90;;;;;;4995866;28;20029;-31
2022/11/28 06:58:05;;;;;;;25.58;12.95;;;8.90;99.90;;;;;;4974574;28;20482;-28
2022/11/28 07:00:31;;;;;;;22.85;10.88;;;8.90;99.90;;;;;;4995808;28;20084;-32
2022/11/28 07:02:57;;;;;;;32.00;13.13;;;8.90;99.90;;;;;;4991406;28;20026;-34
2022/11/28 07:05:26;;;;;;;35.17;13.05;;;8.90;99.90;;;;;;4997370;28;20025;-32
2022/11/28 07:07:52;;;;;;;27.75;12.32;;;8.90;99.90;;;;;;4997076;28;20022;-32
2022/11/28 07:10:19;;;;;;;29.92;13.90;;;9.00;99.90;;;;;;4988903;28;20034;-34
2022/11/28 07:12:44;;;;;;;25.80;12.10;;;8.90;99.90;;;;;;4984801;28;20049;-38
2022/11/28 07:15:10;;;;;;;30.45;12.80;;;8.90;99.90;;;;;;4991110;28;20034;-32
2022/11/28 07:17:36;;;;;;;27.92;11.80;;;9.00;99.90;;;;;;4994225;28;20100;-31
2022/11/28 07:20:02;;;;;;;27.17;12.32;;;9.00;99.90;;;;;;4980560;28;20029;-36
2022/11/28 07:22:27;;;;;;;33.33;13.82;;;9.00;99.90;;;;;;4993284;28;20498;-31
2022/11/28 07:24:53;;;;;;;32.42;13.85;;;9.00;99.90;;;;;;4994767;28;20030;-32
2022/11/28 07:27:19;;;;;;;30.63;13.02;;;9.00;99.90;;;;;;4995032;28;20548;-30
2022/11/28 07:29:44;;;;;;;33.53;13.77;;;9.00;99.90;;;;;;4991875;28;20026;-29
2022/11/28 07:32:10;;;;;;;35.85;13.50;;;9.10;99.90;;;;;;4993000;28;20022;-30
2022/11/28 07:34:35;;;;;;;30.83;12.80;;;9.00;99.90;;;;;;4995641;28;20032;-29
2022/11/28 07:37:01;;;;;;;36.78;14.23;;;9.00;99.90;;;;;;4995836;28;20033;-31
2022/11/28 07:39:27;;;;;;;35.38;13.73;;;9.10;99.90;;;;;;4993772;28;20038;-31
2022/11/28 07:41:52;;;;;;;33.67;12.93;;;9.00;99.90;;;;;;4993863;28;20106;-49
2022/11/28 07:44:18;;;;;;;32.35;13.13;;;9.10;99.90;;;;;;4976190;28;20037;-39
2022/11/28 07:46:45;;;;;;;30.48;13.45;;;9.00;99.90;;;;;;4994427;28;20032;-38
2022/11/28 07:49:12;;;;;;;36.42;14.60;;;9.00;99.90;;;;;;4990963;28;20030;-35
2022/11/28 07:51:39;;;;;;;35.17;13.48;;;9.00;99.90;;;;;;4994420;28;20033;-39
2022/11/28 07:54:05;;;;;;;33.22;14.30;;;9.10;99.90;;;;;;4995119;28;20026;-39
2022/11/28 07:56:34;;;;;;;31.92;13.02;;;9.10;99.90;;;;;;4993336;28;20154;-37
2022/11/28 07:59:00;;;;;;;32.83;13.38;;;9.10;99.90;;;;;;4998656;28;20065;-39
2022/11/28 08:01:29;;;;;;;37.33;13.95;;;9.10;99.90;;;;;;4993752;28;20034;-42
2022/11/28 08:03:55;;;;;;;27.17;11.88;;;9.10;99.90;;;;;;5000486;28;20474;-54
2022/11/28 08:06:25;;;;;;;33.28;13.48;;;9.10;99.90;;;;;;4996214;28;20022;-39
2022/11/28 08:08:51;;;;;;;32.28;13.07;;;9.10;99.90;;;;;;5002756;28;20434;-39
2022/11/28 08:11:20;;;;;;;38.42;13.68;;;9.10;99.90;;;;;;4987076;28;20460;-42
2022/11/28 08:13:46;;;;;;;37.22;12.18;;;9.20;99.90;;;;;;4990569;28;20483;-44
2022/11/28 08:16:13;;;;;;;33.35;13.65;;;9.20;99.90;;;;;;4996043;28;20114;-39
2022/11/28 08:18:38;;;;;;;25.27;10.37;;;9.20;99.90;;;;;;4992940;28;20034;-40
2022/11/28 08:21:10;;;;;;;33.55;14.52;;;9.20;99.90;;;;;;4993910;28;20030;-40
2022/11/28 08:23:36;;;;;;;32.40;14.55;;;9.20;99.90;;;;;;4992632;28;20501;-38
2022/11/28 08:26:02;;;;;;;45.90;15.90;;;9.30;99.90;;;;;;4992406;28;20018;-40
2022/11/28 08:31:18;;;;;;;39.85;13.60;;;9.30;99.90;;;;;;4993184;28;20631;-40
2022/11/28 08:33:45;;;;;;;39.58;15.73;;;9.30;99.90;;;;;;4991054;28;20505;-39
2022/11/28 08:36:13;;;;;;;41.58;14.68;;;9.30;99.90;;;;;;4992609;28;20026;-39
2022/11/28 08:38:41;;;;;;;43.30;16.60;;;9.30;99.90;;;;;;4995135;28;20037;-42
2022/11/28 08:41:11;;;;;;;51.97;14.90;;;9.30;99.90;;;;;;4994430;28;20027;-40
2022/11/28 08:43:37;;;;;;;43.28;16.70;;;9.30;99.90;;;;;;4988530;28;20037;-39
2022/11/28 08:46:04;;;;;;;50.70;15.45;;;9.30;99.90;;;;;;5014815;28;20030;-39
2022/11/28 08:48:30;;;;;;;39.33;16.52;;;9.30;99.90;;;;;;4993067;28;20434;-38
2022/11/28 08:50:56;;;;;;;47.70;18.00;;;9.30;99.90;;;;;;4992392;28;20030;-39
2022/11/28 08:53:22;;;;;;;46.67;16.80;;;9.30;99.90;;;;;;4975844;28;20516;-31
2022/11/28 08:55:47;;;;;;;45.33;17.40;;;9.40;99.90;;;;;;4989517;28;20113;-30
2022/11/28 08:58:13;;;;;;;55.20;17.27;;;9.40;99.90;;;;;;4999985;28;20070;-32
2022/11/28 09:00:41;;;;;;;58.83;18.38;;;9.40;99.90;;;;;;4989251;28;20478;-35
2022/11/28 09:03:08;;;;;;;45.17;16.60;;;9.40;99.90;;;;;;4992606;28;20061;-33
2022/11/28 09:05:34;;;;;;;45.15;16.58;;;9.40;99.90;;;;;;4990676;28;20065;-30
2022/11/28 09:07:59;;;;;;;53.53;17.27;;;9.40;99.90;;;;;;4974106;28;20478;-39
2022/11/28 09:10:25;;;;;;;53.33;17.50;;;9.40;99.90;;;;;;4990159;28;20110;-30
2022/11/28 09:12:51;;;;;;;52.40;16.85;;;9.40;99.90;;;;;;4994131;28;20138;-32
2022/11/28 09:15:17;;;;;;;50.25;17.00;;;9.40;99.90;;;;;;4989899;28;20058;-33
2022/11/28 09:17:44;;;;;;;58.95;18.52;;;9.50;99.90;;;;;;4987255;28;20105;-34
2022/11/28 09:20:15;;;;;;;57.53;18.13;;;9.60;99.90;;;;;;4988659;28;20391;-38
2022/11/28 09:22:42;;;;;;;53.13;17.42;;;9.60;99.90;;;;;;4988005;28;20454;-34
2022/11/28 09:25:08;;;;;;;46.80;16.02;;;9.60;99.90;;;;;;4991078;28;20034;-29
2022/11/28 09:27:34;;;;;;;54.00;16.38;;;9.60;99.90;;;;;;4992469;28;20081;-30
2022/11/28 09:29:59;;;;;;;54.45;17.17;;;9.60;99.90;;;;;;4983678;28;20448;-35
2022/11/28 09:32:25;;;;;;;54.13;17.10;;;9.60;99.90;;;;;;4973138;28;20483;-37
2022/11/28 09:34:50;;;;;;;47.58;16.67;;;9.70;99.90;;;;;;4994598;28;20128;-33
2022/11/28 09:37:16;;;;;;;105.78;33.70;;;9.70;99.90;;;;;;4994213;28;20085;-39
2022/11/28 09:39:41;;;;;;;56.80;18.92;;;9.80;99.90;;;;;;4992588;28;20023;-39
2022/11/28 09:42:18;;;;;;;64.75;21.45;;;9.80;99.90;;;;;;4993870;28;20046;-35
2022/11/28 09:45:08;;;;;;;51.65;17.13;;;9.90;99.90;;;;;;4992010;28;20494;-31
2022/11/28 09:47:36;;;;;;;54.20;17.05;;;9.90;99.90;;;;;;4992757;28;20030;-32
2022/11/28 09:50:05;;;;;;;65.93;19.42;;;9.80;99.90;;;;;;4993007;28;20023;-35
2022/11/28 09:52:51;;;;;;;64.63;18.75;;;9.90;99.90;;;;;;4995028;28;20088;-34
2022/11/28 09:55:34;;;;;;;58.22;17.48;;;9.90;99.90;;;;;;4961412;28;20596;-35
2022/11/28 09:58:07;;;;;;;65.13;17.55;;;10.00;99.90;;;;;;4995295;28;20474;-33
2022/11/28 10:00:33;;;;;;;84.05;24.17;;;10.00;99.90;;;;;;4991601;28;20066;-34
2022/11/28 10:03:10;;;;;;;431.98;142.90;;;10.10;99.90;;;;;;4992316;28;20030;-32
2022/11/28 10:05:46;;;;;;;66.60;20.20;;;10.10;99.90;;;;;;4991724;28;20084;-35
2022/11/28 10:08:31;;;;;;;80.38;22.15;;;10.00;99.90;;;;;;4992733;28;20034;-34
2022/11/28 10:11:24;;;;;;;48.38;16.80;;;10.00;99.90;;;;;;4997771;28;20081;-32
2022/11/28 10:14:02;;;;;;;60.80;16.10;;;10.00;99.90;;;;;;4988226;28;20034;-34
2022/11/28 10:16:46;;;;;;;58.10;17.80;;;10.00;99.90;;;;;;4991322;28;20470;-34
2022/11/28 10:19:16;;;;;;;64.18;20.92;;;10.00;99.90;;;;;;4991535;28;20088;-32
2022/11/28 10:21:54;;;;;;;61.67;20.02;;;10.10;99.90;;;;;;4975763;28;20033;-34
2022/11/28 10:24:22;;;;;;;;;;;10.00;99.90;;;;;;4993762;28;20030;-32
2022/11/28 10:26:53;;;;;;;46.80;15.73;;;10.10;99.90;;;;;;4986728;28;20025;-34
2022/11/28 10:29:45;;;;;;;52.42;16.13;;;10.10;99.90;;;;;;4988757;28;20491;-34
2022/11/28 10:32:19;;;;;;;41.45;15.98;;;10.20;99.90;;;;;;4976576;28;20026;-32
2022/11/28 10:35:03;;;;;;;62.17;16.48;;;10.20;99.90;;;;;;4986173;28;20065;-30
2022/11/28 10:37:30;;;;;;;60.72;18.45;;;10.20;99.90;;;;;;4990093;28;20478;-38
2022/11/28 10:40:13;;;;;;;53.90;16.23;;;10.30;99.90;;;;;;4990910;28;20026;-32
2022/11/28 10:42:50;;;;;;;69.25;26.35;;;10.40;99.90;;;;;;4973925;28;20026;-35
2022/11/28 10:45:47;;;;;;;46.90;15.80;;;10.40;99.90;;;;;;4982688;28;20026;-31
2022/11/28 10:48:30;;;;;;;43.20;14.00;;;10.40;99.90;;;;;;4990625;28;20489;-33
2022/11/28 10:51:17;;;;;;;48.70;16.38;;;10.40;99.90;;;;;;4992754;28;20530;-30
2022/11/28 10:54:01;;;;;;;44.97;14.70;;;10.50;99.90;;;;;;4990180;28;20034;-36
2022/11/28 10:56:40;;;;;;;48.67;15.13;;;10.40;99.90;;;;;;4991423;28;20030;-39
2022/11/28 10:59:25;;;;;;;60.17;15.88;;;10.50;99.90;;;;;;4986374;28;20037;-38
2022/11/28 11:01:51;;;;;;;46.33;15.73;;;10.60;99.90;;;;;;4990051;28;20399;-36
2022/11/28 11:04:22;;;;;;;50.65;16.23;;;10.60;99.90;;;;;;4992228;28;20080;-41
2022/11/28 11:07:08;;;;;;;45.72;15.45;;;10.60;99.90;;;;;;4979970;28;20107;-32
2022/11/28 11:09:34;;;;;;;45.85;14.68;;;10.60;99.90;;;;;;4981249;28;20026;-37
2022/11/28 11:12:09;;;;;;;51.75;16.08;;;10.60;99.90;;;;;;4987826;28;20336;-37
2022/11/28 11:14:41;;;;;;;39.88;14.38;;;10.70;99.90;;;;;;4986943;28;20482;-34
2022/11/28 11:17:31;;;;;;;33.22;13.13;;;10.60;99.90;;;;;;4992240;28;20033;-35
2022/11/28 11:19:57;;;;;;;41.08;13.75;;;10.70;99.90;;;;;;4987964;28;20030;-31
2022/11/28 11:22:30;;;;;;;38.30;12.88;;;10.70;99.90;;;;;;4965388;28;20033;-33
2022/11/28 11:25:11;;;;;;;33.88;13.73;;;10.70;99.90;;;;;;4987167;28;20034;-35
2022/11/28 11:27:45;;;;;;;31.20;12.32;;;10.70;99.90;;;;;;4985932;28;20498;-33
2022/11/28 11:30:24;;;;;;;33.22;12.63;;;10.70;99.90;;;;;;4988751;28;20043;-33
2022/11/28 11:32:50;;;;;;;29.77;13.13;;;10.70;99.90;;;;;;4996232;28;20058;-34
2022/11/28 11:35:41;;;;;;;34.40;12.88;;;10.80;99.90;;;;;;4989537;28;20105;-35
2022/11/28 11:38:20;;;;;;;33.47;13.27;;;10.70;99.90;;;;;;4992420;28;20521;-49
2022/11/28 11:40:47;;;;;;;29.10;11.75;;;10.80;99.90;;;;;;4985893;28;20030;-36
2022/11/28 11:43:26;;;;;;;31.43;13.63;;;10.80;99.90;;;;;;4989162;28;20034;-33
2022/11/28 11:46:12;;;;;;;29.52;12.23;;;10.80;99.90;;;;;;4992321;28;20434;-35
2022/11/28 11:48:42;;;;;;;41.78;12.95;;;10.90;99.90;;;;;;4944004;28;20039;-36
2022/11/28 11:51:31;;;;;;;35.45;13.43;;;10.90;99.90;;;;;;4992434;28;20026;-36
2022/11/28 11:54:04;;;;;;;29.33;12.70;;;10.90;99.90;;;;;;4996196;28;20510;-35
2022/11/28 11:56:35;;;;;;;37.35;13.77;;;10.90;99.90;;;;;;4995018;28;20411;-42
2022/11/28 11:59:06;;;;;;;36.67;13.65;;;10.90;99.90;;;;;;5009138;28;20036;-40
2022/11/28 12:01:34;;;;;;;44.05;14.52;;;10.90;99.90;;;;;;4996076;28;20029;-35
2022/11/28 12:04:05;;;;;;;39.67;14.90;;;10.90;99.90;;;;;;4996032;28;20050;-38
2022/11/28 12:06:49;;;;;;;30.88;14.00;;;10.90;99.90;;;;;;4995887;28;20025;-45
2022/11/28 12:09:55;;;;;;;35.35;13.65;;;10.90;99.90;;;;;;4995909;28;20026;-34
2022/11/28 12:12:25;;;;;;;35.65;13.93;;;10.90;99.90;;;;;;4990685;28;20449;-33
2022/11/28 12:14:51;;;;;;;34.00;13.60;;;10.90;99.90;;;;;;4995111;28;20056;-38
2022/11/28 12:17:29;;;;;;;35.13;13.38;;;10.90;99.90;;;;;;4995393;28;20080;-40
2022/11/28 12:20:06;;;;;;;41.53;14.90;;;10.90;99.90;;;;;;4995784;28;20038;-36
2022/11/28 12:22:47;;;;;;;40.00;15.52;;;11.00;99.90;;;;;;4995549;28;20018;-34
2022/11/28 12:25:32;;;;;;;40.75;15.48;;;11.00;99.90;;;;;;4994929;28;20065;-33
2022/11/28 12:28:15;;;;;;;39.03;14.18;;;11.10;99.90;;;;;;4995567;28;20022;-34
2022/11/28 12:30:53;;;;;;;37.17;14.18;;;11.20;99.90;;;;;;4995391;28;20031;-32
2022/11/28 12:33:38;;;;;;;36.42;15.27;;;11.20;99.90;;;;;;4995485;28;20026;-41
2022/11/28 12:36:40;;;;;;;42.42;14.63;;;11.30;99.90;;;;;;4994690;28;20045;-40
2022/11/28 12:39:20;;;;;;;40.20;14.15;;;11.40;99.90;;;;;;4995500;28;20598;-41
2022/11/28 12:41:58;;;;;;;40.70;14.65;;;11.40;99.90;;;;;;4994364;28;20113;-40
2022/11/28 12:44:47;;;;;;;36.30;14.63;;;11.40;99.90;;;;;;4995380;28;20521;-39
2022/11/28 12:47:30;;;;;;;41.22;14.57;;;11.30;99.90;;;;;;4975801;28;20121;-41
2022/11/28 12:50:20;;;;;;;37.90;13.88;;;11.30;99.90;;;;;;4975373;28;20475;-41
2022/11/28 12:52:54;;;;;;;40.70;13.93;;;11.30;99.90;;;;;;4976050;28;20018;-42
2022/11/28 12:55:43;;;;;;;32.53;13.80;;;11.20;99.90;;;;;;4980548;28;20475;-41
2022/11/28 12:58:35;;;;;;;33.17;13.50;;;11.20;99.90;;;;;;4963383;28;20494;-41
2022/11/28 13:01:14;;;;;;;37.20;14.73;;;11.20;99.90;;;;;;4994851;28;20471;-42
2022/11/28 13:04:05;;;;;;;34.38;13.48;;;11.20;99.90;;;;;;4995223;28;20462;-41
2022/11/28 13:06:45;;;;;;;34.67;12.63;;;11.20;99.90;;;;;;4994972;28;20471;-33
2022/11/28 13:10:01;;;;;;;40.03;12.10;;;11.20;99.90;;;;;;4994596;28;20030;-36
2022/11/28 13:12:35;;;;;;;31.88;12.70;;;11.20;99.90;;;;;;4913373;29;20056;-33